KCCB/CCB METAR and TAF weather

Enter ICAO airport designator
Station Type Date Time Source
KCCB METAR 2019/06/26 22:00 UTC NOAA

KCCB 262200Z AUTO 27009G14KT 240V300 10SM CLR 24/12 A2997 RMK AO2


Station Type Date Time Source
KCCB Decoded METAR 2019/06/26 22:00 UTC NOAA

Station name not available
Jun 26, 2019 - 06:00 PM EDT / 2019.06.26 2200 UTC
Wind: from the W (270 degrees) at 10 MPH (9 KT) gusting to 16 MPH (14 KT) (direction variable):0
Visibility: 10 mile(s):0
Sky conditions: clear
Temperature: 75 F (24 C)
Dew Point: 53 F (12 C)
Relative Humidity: 46%
Pressure (altimeter): 29.97 in. Hg (1014 hPa)
ob: KCCB 262200Z AUTO 27009G14KT 240V300 10SM CLR 24/12 A2997 RMK AO2
cycle: 22

Station Type Date Time Source
KCCB TAF UTC NOAA

Error!

Example: see airport list